sensor_id;sensor_type;location;lat;lon;timestamp;pressure;altitude;pressure_sealevel;temperature;humidity
52777;BME280;38656;54.260;20.822;2024-03-23T00:54:29;99944.69;;;9.50;100.00
52777;BME280;38656;54.260;20.822;2024-03-23T00:56:55;99948.09;;;9.41;100.00
52777;BME280;38656;54.260;20.822;2024-03-23T00:59:21;99965.28;;;8.91;100.00
52777;BME280;38656;54.260;20.822;2024-03-23T01:01:48;99958.50;;;9.63;100.00
52777;BME280;38656;54.260;20.822;2024-03-23T01:04:14;99951.53;;;8.99;100.00
52777;BME280;38656;54.260;20.822;2024-03-23T01:06:40;99952.66;;;9.17;100.00
52777;BME280;38656;54.260;20.822;2024-03-23T01:09:06;99948.25;;;9.07;100.00
52777;BME280;38656;54.260;20.822;2024-03-23T01:11:36;99952.75;;;8.83;100.00
52777;BME280;38656;54.260;20.822;2024-03-23T01:14:03;99944.91;;;9.04;100.00
52777;BME280;38656;54.260;20.822;2024-03-23T01:16:29;99938.72;;;9.27;100.00
52777;BME280;38656;54.260;20.822;2024-03-23T01:18:55;99940.19;;;9.41;100.00
52777;BME280;38656;54.260;20.822;2024-03-23T01:21:21;99926.84;;;9.00;100.00
52777;BME280;38656;54.260;20.822;2024-03-23T01:23:47;99929.56;;;9.10;100.00
52777;BME280;38656;54.260;20.822;2024-03-23T01:26:14;99938.31;;;9.31;100.00
52777;BME280;38656;54.260;20.822;2024-03-23T01:28:40;99928.75;;;8.77;100.00
52777;BME280;38656;54.260;20.822;2024-03-23T01:31:06;99916.84;;;8.61;100.00
52777;BME280;38656;54.260;20.822;2024-03-23T01:33:33;99929.88;;;8.95;100.00
52777;BME280;38656;54.260;20.822;2024-03-23T01:35:59;99929.00;;;8.74;100.00
52777;BME280;38656;54.260;20.822;2024-03-23T01:38:25;99931.88;;;8.71;100.00
52777;BME280;38656;54.260;20.822;2024-03-23T01:40:57;99934.44;;;8.82;100.00
52777;BME280;38656;54.260;20.822;2024-03-23T01:43:23;99932.00;;;9.01;100.00
52777;BME280;38656;54.260;20.822;2024-03-23T01:45:50;99942.03;;;8.75;100.00
52777;BME280;38656;54.260;20.822;2024-03-23T01:48:16;99932.81;;;8.70;100.00
52777;BME280;38656;54.260;20.822;2024-03-23T01:50:42;99933.38;;;8.84;100.00
52777;BME280;38656;54.260;20.822;2024-03-23T01:53:08;99929.03;;;8.40;100.00
52777;BME280;38656;54.260;20.822;2024-03-23T01:55:35;99925.94;;;8.57;100.00
52777;BME280;38656;54.260;20.822;2024-03-23T01:58:01;99929.75;;;8.53;100.00
52777;BME280;38656;54.260;20.822;2024-03-23T02:00:27;99925.34;;;8.54;100.00
52777;BME280;38656;54.260;20.822;2024-03-23T02:02:54;99920.16;;;8.63;100.00
52777;BME280;38656;54.260;20.822;2024-03-23T02:05:21;99917.56;;;8.41;100.00
52777;BME280;38656;54.260;20.822;2024-03-23T02:07:47;99914.41;;;8.70;100.00
52777;BME280;38656;54.260;20.822;2024-03-23T02:10:14;99916.47;;;8.55;100.00
52777;BME280;38656;54.260;20.822;2024-03-23T02:12:40;99913.94;;;8.64;100.00
52777;BME280;38656;54.260;20.822;2024-03-23T02:15:07;99918.09;;;8.78;100.00
52777;BME280;38656;54.260;20.822;2024-03-23T02:17:35;99911.75;;;8.81;100.00
52777;BME280;38656;54.260;20.822;2024-03-23T02:20:03;99913.47;;;8.59;100.00
52777;BME280;38656;54.260;20.822;2024-03-23T02:22:39;99910.81;;;8.71;100.00
52777;BME280;38656;54.260;20.822;2024-03-23T02:25:06;99924.69;;;8.73;100.00
52777;BME280;38656;54.260;20.822;2024-03-23T02:27:33;99915.94;;;9.04;100.00
52777;BME280;38656;54.260;20.822;2024-03-23T02:30:00;99908.94;;;8.61;100.00
52777;BME280;38656;54.260;20.822;2024-03-23T02:32:26;99902.91;;;9.24;100.00
52777;BME280;38656;54.260;20.822;2024-03-23T02:34:53;99903.72;;;8.82;100.00
52777;BME280;38656;54.260;20.822;2024-03-23T02:37:19;99897.09;;;8.88;100.00
52777;BME280;38656;54.260;20.822;2024-03-23T02:39:45;99893.25;;;8.92;100.00
52777;BME280;38656;54.260;20.822;2024-03-23T02:42:11;99896.53;;;8.84;100.00
52777;BME280;38656;54.260;20.822;2024-03-23T02:44:37;99902.28;;;8.78;100.00
52777;BME280;38656;54.260;20.822;2024-03-23T02:47:03;99908.78;;;8.95;100.00
52777;BME280;38656;54.260;20.822;2024-03-23T02:49:30;99911.31;;;8.64;100.00
52777;BME280;38656;54.260;20.822;2024-03-23T02:51:56;99903.25;;;8.77;100.00
52777;BME280;38656;54.260;20.822;2024-03-23T02:54:22;99899.78;;;8.77;100.00
52777;BME280;38656;54.260;20.822;2024-03-23T02:56:48;99905.31;;;8.74;100.00
52777;BME280;38656;54.260;20.822;2024-03-23T02:59:14;99914.47;;;8.47;100.00
52777;BME280;38656;54.260;20.822;2024-03-23T03:01:40;99914.81;;;8.86;100.00
52777;BME280;38656;54.260;20.822;2024-03-23T03:04:06;99921.91;;;8.74;100.00
52777;BME280;38656;54.260;20.822;2024-03-23T03:06:33;99919.09;;;8.55;100.00
52777;BME280;38656;54.260;20.822;2024-03-23T03:08:59;99921.47;;;9.01;100.00
52777;BME280;38656;54.260;20.822;2024-03-23T03:11:25;99916.66;;;9.07;100.00
52777;BME280;38656;54.260;20.822;2024-03-23T03:13:51;99915.16;;;8.60;100.00
52777;BME280;38656;54.260;20.822;2024-03-23T03:16:18;99918.97;;;8.56;100.00
52777;BME280;38656;54.260;20.822;2024-03-23T03:18:44;99910.72;;;8.93;100.00
52777;BME280;38656;54.260;20.822;2024-03-23T03:21:12;99903.41;;;9.18;100.00
52777;BME280;38656;54.260;20.822;2024-03-23T03:23:39;99912.88;;;8.88;100.00
52777;BME280;38656;54.260;20.822;2024-03-23T03:26:05;99905.69;;;8.58;100.00
52777;BME280;38656;54.260;20.822;2024-03-23T03:28:32;99903.03;;;9.01;100.00
52777;BME280;38656;54.260;20.822;2024-03-23T03:30:59;99897.25;;;9.08;100.00
52777;BME280;38656;54.260;20.822;2024-03-23T03:33:27;99898.28;;;9.37;100.00
52777;BME280;38656;54.260;20.822;2024-03-23T03:35:54;99887.63;;;8.64;100.00
52777;BME280;38656;54.260;20.822;2024-03-23T03:38:20;99877.81;;;8.99;100.00
52777;BME280;38656;54.260;20.822;2024-03-23T03:40:47;99875.09;;;9.10;100.00
52777;BME280;38656;54.260;20.822;2024-03-23T03:43:13;99864.81;;;8.54;100.00
52777;BME280;38656;54.260;20.822;2024-03-23T03:45:39;99861.50;;;8.73;100.00
52777;BME280;38656;54.260;20.822;2024-03-23T03:48:06;99856.88;;;8.65;100.00
52777;BME280;38656;54.260;20.822;2024-03-23T03:50:32;99856.66;;;8.89;100.00
52777;BME280;38656;54.260;20.822;2024-03-23T03:52:59;99865.28;;;8.59;100.00
52777;BME280;38656;54.260;20.822;2024-03-23T03:55:25;99874.28;;;8.45;100.00
52777;BME280;38656;54.260;20.822;2024-03-23T03:57:51;99870.84;;;8.98;100.00
52777;BME280;38656;54.260;20.822;2024-03-23T04:00:17;99859.88;;;9.14;100.00
52777;BME280;38656;54.260;20.822;2024-03-23T04:02:43;99860.22;;;8.88;100.00
52777;BME280;38656;54.260;20.822;2024-03-23T04:05:09;99858.25;;;8.80;100.00
52777;BME280;38656;54.260;20.822;2024-03-23T04:07:36;99857.94;;;8.62;100.00
52777;BME280;38656;54.260;20.822;2024-03-23T04:10:02;99865.03;;;8.62;100.00
52777;BME280;38656;54.260;20.822;2024-03-23T04:12:33;99867.59;;;8.29;100.00
52777;BME280;38656;54.260;20.822;2024-03-23T04:14:59;99864.69;;;8.55;100.00
52777;BME280;38656;54.260;20.822;2024-03-23T04:17:26;99855.22;;;8.85;100.00
52777;BME280;38656;54.260;20.822;2024-03-23T04:19:57;99865.75;;;9.27;100.00
52777;BME280;38656;54.260;20.822;2024-03-23T04:22:24;99867.41;;;9.18;100.00
52777;BME280;38656;54.260;20.822;2024-03-23T04:24:53;99872.53;;;9.20;100.00
52777;BME280;38656;54.260;20.822;2024-03-23T04:27:20;99873.28;;;8.90;100.00
52777;BME280;38656;54.260;20.822;2024-03-23T04:29:52;99861.41;;;8.95;100.00
52777;BME280;38656;54.260;20.822;2024-03-23T04:32:19;99860.84;;;8.92;100.00
52777;BME280;38656;54.260;20.822;2024-03-23T04:34:45;99861.41;;;8.95;100.00
52777;BME280;38656;54.260;20.822;2024-03-23T04:37:12;99852.22;;;8.90;100.00
52777;BME280;38656;54.260;20.822;2024-03-23T04:39:38;99849.22;;;8.62;100.00
52777;BME280;38656;54.260;20.822;2024-03-23T04:42:05;99844.44;;;8.88;100.00
52777;BME280;38656;54.260;20.822;2024-03-23T04:44:31;99855.47;;;8.82;100.00
52777;BME280;38656;54.260;20.822;2024-03-23T04:46:58;99845.03;;;9.34;100.00
52777;BME280;38656;54.260;20.822;2024-03-23T04:49:24;99844.88;;;9.35;100.00
52777;BME280;38656;54.260;20.822;2024-03-23T04:51:50;99852.34;;;8.88;100.00
52777;BME280;38656;54.260;20.822;2024-03-23T04:54:16;99850.06;;;8.62;100.00
52777;BME280;38656;54.260;20.822;2024-03-23T04:56:43;99841.03;;;8.44;100.00
52777;BME280;38656;54.260;20.822;2024-03-23T04:59:09;99840.97;;;8.66;100.00
52777;BME280;38656;54.260;20.822;2024-03-23T05:01:35;99837.03;;;8.61;100.00
52777;BME280;38656;54.260;20.822;2024-03-23T05:04:04;99839.94;;;8.79;100.00
52777;BME280;38656;54.260;20.822;2024-03-23T05:06:31;99841.91;;;8.65;100.00
52777;BME280;38656;54.260;20.822;2024-03-23T05:08:57;99831.44;;;8.54;100.00
52777;BME280;38656;54.260;20.822;2024-03-23T05:11:23;99839.34;;;8.54;100.00
52777;BME280;38656;54.260;20.822;2024-03-23T05:13:49;99839.88;;;8.69;100.00
52777;BME280;38656;54.260;20.822;2024-03-23T05:16:16;99838.69;;;8.62;100.00
52777;BME280;38656;54.260;20.822;2024-03-23T05:18:42;99829.94;;;9.15;100.00
52777;BME280;38656;54.260;20.822;2024-03-23T05:21:08;99830.25;;;8.47;100.00
52777;BME280;38656;54.260;20.822;2024-03-23T05:23:34;99827.31;;;8.94;100.00
52777;BME280;38656;54.260;20.822;2024-03-23T05:26:01;99820.81;;;8.77;100.00
52777;BME280;38656;54.260;20.822;2024-03-23T05:28:27;99823.09;;;8.70;100.00
52777;BME280;38656;54.260;20.822;2024-03-23T05:30:54;99819.09;;;8.87;100.00
52777;BME280;38656;54.260;20.822;2024-03-23T05:33:21;99825.88;;;9.11;100.00
52777;BME280;38656;54.260;20.822;2024-03-23T05:35:47;99829.91;;;8.73;100.00
52777;BME280;38656;54.260;20.822;2024-03-23T05:38:22;99836.31;;;9.12;100.00
52777;BME280;38656;54.260;20.822;2024-03-23T05:41:14;99836.09;;;8.83;100.00
52777;BME280;38656;54.260;20.822;2024-03-23T05:43:40;99828.47;;;9.01;100.00
52777;BME280;38656;54.260;20.822;2024-03-23T05:46:06;99827.41;;;8.39;100.00
52777;BME280;38656;54.260;20.822;2024-03-23T05:48:36;99831.56;;;8.53;100.00
52777;BME280;38656;54.260;20.822;2024-03-23T05:51:02;99825.56;;;8.83;100.00
52777;BME280;38656;54.260;20.822;2024-03-23T05:53:28;99811.94;;;9.20;100.00
52777;BME280;38656;54.260;20.822;2024-03-23T05:56:03;99809.63;;;8.63;100.00
52777;BME280;38656;54.260;20.822;2024-03-23T05:58:33;99807.53;;;8.78;100.00
52777;BME280;38656;54.260;20.822;2024-03-23T06:01:00;99803.72;;;8.92;100.00
52777;BME280;38656;54.260;20.822;2024-03-23T06:03:27;99810.03;;;8.80;100.00
52777;BME280;38656;54.260;20.822;2024-03-23T06:05:54;99809.94;;;8.38;100.00
52777;BME280;38656;54.260;20.822;2024-03-23T06:08:21;99811.63;;;8.71;100.00
52777;BME280;38656;54.260;20.822;2024-03-23T06:10:47;99807.53;;;8.46;100.00
52777;BME280;38656;54.260;20.822;2024-03-23T06:13:14;99794.50;;;8.44;100.00
52777;BME280;38656;54.260;20.822;2024-03-23T06:15:40;99806.31;;;8.61;100.00
52777;BME280;38656;54.260;20.822;2024-03-23T06:18:07;99805.47;;;9.03;100.00
52777;BME280;38656;54.260;20.822;2024-03-23T06:20:36;99802.38;;;8.98;100.00
52777;BME280;38656;54.260;20.822;2024-03-23T06:23:02;99807.94;;;8.62;100.00
52777;BME280;38656;54.260;20.822;2024-03-23T06:25:29;99801.41;;;8.57;100.00
52777;BME280;38656;54.260;20.822;2024-03-23T06:27:56;99804.00;;;8.89;100.00
52777;BME280;38656;54.260;20.822;2024-03-23T06:30:24;99806.88;;;8.65;100.00
52777;BME280;38656;54.260;20.822;2024-03-23T06:32:52;99810.28;;;9.19;100.00
52777;BME280;38656;54.260;20.822;2024-03-23T06:35:19;99804.75;;;9.22;100.00
52777;BME280;38656;54.260;20.822;2024-03-23T06:37:45;99800.91;;;8.84;100.00
52777;BME280;38656;54.260;20.822;2024-03-23T06:40:11;99801.56;;;8.97;100.00
52777;BME280;38656;54.260;20.822;2024-03-23T06:42:37;99793.16;;;8.61;100.00
52777;BME280;38656;54.260;20.822;2024-03-23T06:45:04;99792.50;;;8.69;100.00
52777;BME280;38656;54.260;20.822;2024-03-23T06:47:31;99790.44;;;8.73;100.00
52777;BME280;38656;54.260;20.822;2024-03-23T06:49:57;99788.19;;;8.89;100.00
52777;BME280;38656;54.260;20.822;2024-03-23T06:52:23;99795.38;;;8.45;100.00
52777;BME280;38656;54.260;20.822;2024-03-23T06:54:50;99790.66;;;8.81;100.00
52777;BME280;38656;54.260;20.822;2024-03-23T06:57:16;99786.31;;;9.01;100.00
52777;BME280;38656;54.260;20.822;2024-03-23T06:59:42;99790.25;;;9.07;100.00
52777;BME280;38656;54.260;20.822;2024-03-23T07:02:09;99794.19;;;9.22;100.00
52777;BME280;38656;54.260;20.822;2024-03-23T07:04:36;99791.16;;;8.96;100.00
52777;BME280;38656;54.260;20.822;2024-03-23T07:07:02;99794.72;;;9.16;100.00
52777;BME280;38656;54.260;20.822;2024-03-23T07:09:29;99792.88;;;9.37;100.00
52777;BME280;38656;54.260;20.822;2024-03-23T07:11:56;99795.56;;;9.88;100.00
52777;BME280;38656;54.260;20.822;2024-03-23T07:14:23;99786.88;;;9.66;100.00
52777;BME280;38656;54.260;20.822;2024-03-23T07:16:49;99793.75;;;9.48;100.00
52777;BME280;38656;54.260;20.822;2024-03-23T07:19:16;99787.88;;;9.34;100.00
52777;BME280;38656;54.260;20.822;2024-03-23T07:21:43;99780.75;;;10.06;100.00
52777;BME280;38656;54.260;20.822;2024-03-23T07:24:10;99793.69;;;9.59;100.00
52777;BME280;38656;54.260;20.822;2024-03-23T07:26:36;99796.38;;;9.79;100.00
52777;BME280;38656;54.260;20.822;2024-03-23T07:29:04;99795.25;;;9.41;100.00
52777;BME280;38656;54.260;20.822;2024-03-23T07:31:30;99800.19;;;9.55;100.00
52777;BME280;38656;54.260;20.822;2024-03-23T07:33:56;99795.84;;;9.85;100.00
52777;BME280;38656;54.260;20.822;2024-03-23T07:36:22;99800.78;;;9.37;100.00
52777;BME280;38656;54.260;20.822;2024-03-23T07:38:49;99800.25;;;9.74;100.00
52777;BME280;38656;54.260;20.822;2024-03-23T07:41:20;99803.69;;;9.34;100.00
52777;BME280;38656;54.260;20.822;2024-03-23T07:43:47;99818.50;;;9.56;100.00
52777;BME280;38656;54.260;20.822;2024-03-23T07:46:14;99807.75;;;9.48;100.00
52777;BME280;38656;54.260;20.822;2024-03-23T07:48:41;99801.06;;;9.65;100.00
52777;BME280;38656;54.260;20.822;2024-03-23T07:51:20;99791.31;;;9.56;100.00
52777;BME280;38656;54.260;20.822;2024-03-23T07:53:46;99789.75;;;9.94;100.00
52777;BME280;38656;54.260;20.822;2024-03-23T07:56:14;99784.59;;;9.42;100.00
52777;BME280;38656;54.260;20.822;2024-03-23T07:58:44;99789.22;;;10.00;100.00
52777;BME280;38656;54.260;20.822;2024-03-23T08:01:20;99783.59;;;10.34;100.00
52777;BME280;38656;54.260;20.822;2024-03-23T08:03:46;99781.88;;;9.63;100.00
52777;BME280;38656;54.260;20.822;2024-03-23T08:06:16;99778.41;;;10.23;100.00
52777;BME280;38656;54.260;20.822;2024-03-23T08:08:44;99778.06;;;9.77;100.00
52777;BME280;38656;54.260;20.822;2024-03-23T08:11:11;99772.78;;;9.77;100.00
52777;BME280;38656;54.260;20.822;2024-03-23T08:13:39;99768.97;;;10.10;100.00
52777;BME280;38656;54.260;20.822;2024-03-23T08:16:06;99771.75;;;10.68;100.00
52777;BME280;38656;54.260;20.822;2024-03-23T08:18:33;99779.66;;;10.19;100.00
52777;BME280;38656;54.260;20.822;2024-03-23T08:21:06;99774.97;;;9.62;100.00
52777;BME280;38656;54.260;20.822;2024-03-23T08:23:33;99771.03;;;10.17;100.00
52777;BME280;38656;54.260;20.822;2024-03-23T08:26:05;99778.31;;;9.33;100.00
52777;BME280;38656;54.260;20.822;2024-03-23T08:28:32;99761.50;;;9.65;100.00
52777;BME280;38656;54.260;20.822;2024-03-23T08:31:01;99764.50;;;10.01;100.00
52777;BME280;38656;54.260;20.822;2024-03-23T08:33:28;99768.16;;;10.39;100.00
52777;BME280;38656;54.260;20.822;2024-03-23T08:36:05;99765.06;;;9.95;100.00
52777;BME280;38656;54.260;20.822;2024-03-23T08:38:31;99766.00;;;9.44;100.00
52777;BME280;38656;54.260;20.822;2024-03-23T08:41:04;99759.09;;;10.13;100.00
52777;BME280;38656;54.260;20.822;2024-03-23T08:43:32;99749.19;;;9.76;100.00
52777;BME280;38656;54.260;20.822;2024-03-23T08:46:09;99750.03;;;9.76;100.00
52777;BME280;38656;54.260;20.822;2024-03-23T08:48:40;99744.19;;;9.82;100.00
52777;BME280;38656;54.260;20.822;2024-03-23T08:51:10;99744.16;;;9.72;100.00
52777;BME280;38656;54.260;20.822;2024-03-23T08:53:37;99740.59;;;9.93;100.00
52777;BME280;38656;54.260;20.822;2024-03-23T08:56:04;99745.34;;;10.09;100.00
52777;BME280;38656;54.260;20.822;2024-03-23T08:58:32;99734.97;;;9.57;100.00
52777;BME280;38656;54.260;20.822;2024-03-23T09:01:09;99737.66;;;9.67;100.00
52777;BME280;38656;54.260;20.822;2024-03-23T09:03:36;99729.50;;;9.89;100.00
52777;BME280;38656;54.260;20.822;2024-03-23T09:06:13;99735.91;;;10.06;100.00
52777;BME280;38656;54.260;20.822;2024-03-23T09:08:40;99743.41;;;10.21;100.00
52777;BME280;38656;54.260;20.822;2024-03-23T09:11:11;99732.13;;;9.80;100.00
52777;BME280;38656;54.260;20.822;2024-03-23T09:13:38;99733.88;;;9.69;100.00
52777;BME280;38656;54.260;20.822;2024-03-23T09:16:05;99740.97;;;9.59;100.00
52777;BME280;38656;54.260;20.822;2024-03-23T09:18:34;99736.81;;;9.66;100.00
52777;BME280;38656;54.260;20.822;2024-03-23T09:21:04;99735.78;;;9.48;100.00
52777;BME280;38656;54.260;20.822;2024-03-23T09:23:30;99727.88;;;10.18;100.00
52777;BME280;38656;54.260;20.822;2024-03-23T09:25:56;99723.41;;;10.18;100.00
52777;BME280;38656;54.260;20.822;2024-03-23T09:28:23;99725.69;;;9.53;100.00
52777;BME280;38656;54.260;20.822;2024-03-23T09:30:49;99726.06;;;9.48;100.00
52777;BME280;38656;54.260;20.822;2024-03-23T09:33:15;99717.72;;;10.23;100.00
52777;BME280;38656;54.260;20.822;2024-03-23T09:35:43;99718.84;;;9.41;100.00
52777;BME280;38656;54.260;20.822;2024-03-23T09:38:10;99714.09;;;8.73;100.00
52777;BME280;38656;54.260;20.822;2024-03-23T09:40:43;99720.44;;;9.22;100.00
52777;BME280;38656;54.260;20.822;2024-03-23T09:43:09;99716.47;;;9.37;100.00
52777;BME280;38656;54.260;20.822;2024-03-23T09:45:40;99708.97;;;9.83;100.00
52777;BME280;38656;54.260;20.822;2024-03-23T09:48:08;99705.16;;;9.66;100.00
52777;BME280;38656;54.260;20.822;2024-03-23T09:50:40;99701.16;;;9.62;100.00
52777;BME280;38656;54.260;20.822;2024-03-23T09:53:14;99706.75;;;10.08;100.00
52777;BME280;38656;54.260;20.822;2024-03-23T09:55:42;99694.94;;;10.12;100.00
52777;BME280;38656;54.260;20.822;2024-03-23T09:58:12;99702.50;;;9.47;100.00
52777;BME280;38656;54.260;20.822;2024-03-23T10:00:38;99698.41;;;9.83;100.00
52777;BME280;38656;54.260;20.822;2024-03-23T10:03:05;99703.56;;;9.34;100.00
52777;BME280;38656;54.260;20.822;2024-03-23T10:05:33;99707.06;;;9.04;100.00
52777;BME280;38656;54.260;20.822;2024-03-23T10:08:18;99704.22;;;9.17;100.00
52777;BME280;38656;54.260;20.822;2024-03-23T10:10:47;99704.78;;;9.81;100.00
52777;BME280;38656;54.260;20.822;2024-03-23T10:13:26;99706.84;;;9.67;100.00
52777;BME280;38656;54.260;20.822;2024-03-23T10:16:00;99706.84;;;8.65;100.00
52777;BME280;38656;54.260;20.822;2024-03-23T10:18:26;99695.91;;;9.82;100.00
52777;BME280;38656;54.260;20.822;2024-03-23T10:23:40;99686.34;;;9.20;100.00
52777;BME280;38656;54.260;20.822;2024-03-23T10:26:17;99691.72;;;9.60;100.00
52777;BME280;38656;54.260;20.822;2024-03-23T10:31:32;99673.97;;;9.71;100.00
52777;BME280;38656;54.260;20.822;2024-03-23T10:33:59;99671.19;;;9.73;100.00
52777;BME280;38656;54.260;20.822;2024-03-23T10:36:27;99663.34;;;9.32;100.00
52777;BME280;38656;54.260;20.822;2024-03-23T10:38:54;99662.88;;;9.97;100.00
52777;BME280;38656;54.260;20.822;2024-03-23T10:41:21;99671.47;;;10.19;100.00
52777;BME280;38656;54.260;20.822;2024-03-23T10:43:48;99664.56;;;9.79;100.00
52777;BME280;38656;54.260;20.822;2024-03-23T10:46:15;99669.09;;;9.57;100.00
52777;BME280;38656;54.260;20.822;2024-03-23T10:48:41;99669.53;;;9.62;100.00
52777;BME280;38656;54.260;20.822;2024-03-23T10:51:09;99675.56;;;9.33;100.00
52777;BME280;38656;54.260;20.822;2024-03-23T10:53:36;99671.34;;;9.21;100.00
52777;BME280;38656;54.260;20.822;2024-03-23T10:56:03;99668.22;;;8.96;100.00
52777;BME280;38656;54.260;20.822;2024-03-23T10:58:37;99665.88;;;9.44;100.00
52777;BME280;38656;54.260;20.822;2024-03-23T11:01:04;99665.59;;;9.47;100.00
52777;BME280;38656;54.260;20.822;2024-03-23T11:03:38;99675.63;;;9.63;100.00
52777;BME280;38656;54.260;20.822;2024-03-23T11:06:07;99668.31;;;8.85;100.00
52777;BME280;38656;54.260;20.822;2024-03-23T11:08:39;99661.81;;;8.58;100.00
52777;BME280;38656;54.260;20.822;2024-03-23T11:11:21;99657.69;;;8.96;100.00
52777;BME280;38656;54.260;20.822;2024-03-23T11:13:50;99658.41;;;8.25;100.00
52777;BME280;38656;54.260;20.822;2024-03-23T11:16:16;99651.84;;;8.41;100.00
52777;BME280;38656;54.260;20.822;2024-03-23T11:18:43;99645.22;;;8.98;100.00
52777;BME280;38656;54.260;20.822;2024-03-23T11:21:10;99638.38;;;7.92;100.00
52777;BME280;38656;54.260;20.822;2024-03-23T11:23:37;99639.53;;;8.20;100.00
52777;BME280;38656;54.260;20.822;2024-03-23T11:26:06;99632.00;;;8.48;100.00
52777;BME280;38656;54.260;20.822;2024-03-23T11:28:32;99633.31;;;8.42;100.00
52777;BME280;38656;54.260;20.822;2024-03-23T11:30:59;99635.91;;;7.79;100.00
52777;BME280;38656;54.260;20.822;2024-03-23T11:33:25;99641.22;;;7.89;100.00
52777;BME280;38656;54.260;20.822;2024-03-23T11:35:51;99638.03;;;7.85;100.00
52777;BME280;38656;54.260;20.822;2024-03-23T11:38:18;99627.38;;;7.87;100.00
52777;BME280;38656;54.260;20.822;2024-03-23T11:40:48;99629.88;;;7.88;100.00
52777;BME280;38656;54.260;20.822;2024-03-23T11:43:19;99632.75;;;8.39;100.00
52777;BME280;38656;54.260;20.822;2024-03-23T11:45:51;99625.41;;;8.21;100.00
52777;BME280;38656;54.260;20.822;2024-03-23T11:48:20;99626.81;;;7.83;100.00
52777;BME280;38656;54.260;20.822;2024-03-23T11:50:48;99625.66;;;7.76;100.00
52777;BME280;38656;54.260;20.822;2024-03-23T11:53:23;99623.34;;;8.04;100.00
52777;BME280;38656;54.260;20.822;2024-03-23T11:55:55;99617.34;;;8.13;100.00
52777;BME280;38656;54.260;20.822;2024-03-23T11:58:22;99611.75;;;8.48;100.00
52777;BME280;38656;54.260;20.822;2024-03-23T12:01:02;99612.19;;;8.75;100.00
52777;BME280;38656;54.260;20.822;2024-03-23T12:03:30;99605.44;;;8.61;100.00
52777;BME280;38656;54.260;20.822;2024-03-23T12:06:00;99599.97;;;8.74;100.00
52777;BME280;38656;54.260;20.822;2024-03-23T12:08:32;99594.00;;;9.12;100.00
52777;BME280;38656;54.260;20.822;2024-03-23T12:11:05;99602.59;;;9.24;100.00
52777;BME280;38656;54.260;20.822;2024-03-23T12:13:32;99594.09;;;9.11;100.00
52777;BME280;38656;54.260;20.822;2024-03-23T12:16:10;99579.84;;;9.13;100.00
52777;BME280;38656;54.260;20.822;2024-03-23T12:18:38;99586.00;;;9.33;100.00
52777;BME280;38656;54.260;20.822;2024-03-23T12:21:06;99578.75;;;9.16;100.00
52777;BME280;38656;54.260;20.822;2024-03-23T12:23:33;99579.06;;;9.32;100.00
52777;BME280;38656;54.260;20.822;2024-03-23T12:25:59;99580.56;;;9.15;100.00
52777;BME280;38656;54.260;20.822;2024-03-23T12:28:25;99584.91;;;9.46;100.00
52777;BME280;38656;54.260;20.822;2024-03-23T12:30:52;99580.44;;;9.66;100.00
52777;BME280;38656;54.260;20.822;2024-03-23T12:33:21;99580.72;;;9.43;100.00
52777;BME280;38656;54.260;20.822;2024-03-23T12:35:48;99578.47;;;9.29;100.00
52777;BME280;38656;54.260;20.822;2024-03-23T12:38:14;99573.44;;;9.06;100.00
52777;BME280;38656;54.260;20.822;2024-03-23T12:40:40;99568.91;;;9.18;100.00
52777;BME280;38656;54.260;20.822;2024-03-23T12:43:07;99561.03;;;9.57;100.00
52777;BME280;38656;54.260;20.822;2024-03-23T12:45:36;99559.53;;;9.54;100.00
52777;BME280;38656;54.260;20.822;2024-03-23T12:48:02;99552.44;;;9.35;100.00
52777;BME280;38656;54.260;20.822;2024-03-23T12:50:29;99554.09;;;9.66;100.00
52777;BME280;38656;54.260;20.822;2024-03-23T12:52:55;99547.31;;;9.34;100.00
52777;BME280;38656;54.260;20.822;2024-03-23T12:55:22;99542.44;;;9.39;100.00
52777;BME280;38656;54.260;20.822;2024-03-23T12:57:48;99537.19;;;9.49;100.00
52777;BME280;38656;54.260;20.822;2024-03-23T13:00:14;99538.69;;;9.51;100.00
52777;BME280;38656;54.260;20.822;2024-03-23T13:02:42;99535.94;;;9.53;100.00
52777;BME280;38656;54.260;20.822;2024-03-23T13:05:09;99539.69;;;9.50;100.00
52777;BME280;38656;54.260;20.822;2024-03-23T13:07:35;99548.00;;;9.46;100.00
52777;BME280;38656;54.260;20.822;2024-03-23T13:10:04;99556.56;;;9.09;100.00
52777;BME280;38656;54.260;20.822;2024-03-23T13:12:31;99556.81;;;9.06;100.00
52777;BME280;38656;54.260;20.822;2024-03-23T13:14:59;99550.78;;;8.74;100.00
52777;BME280;38656;54.260;20.822;2024-03-23T13:17:26;99537.94;;;8.91;100.00
52777;BME280;38656;54.260;20.822;2024-03-23T13:19:56;99525.78;;;8.99;100.00
52777;BME280;38656;54.260;20.822;2024-03-23T13:22:22;99535.75;;;9.06;100.00
52777;BME280;38656;54.260;20.822;2024-03-23T13:24:48;99528.44;;;9.58;100.00
52777;BME280;38656;54.260;20.822;2024-03-23T13:27:14;99529.38;;;9.86;100.00
52777;BME280;38656;54.260;20.822;2024-03-23T13:29:41;99535.50;;;9.48;100.00
52777;BME280;38656;54.260;20.822;2024-03-23T13:32:07;99525.50;;;9.71;100.00
52777;BME280;38656;54.260;20.822;2024-03-23T13:34:33;99525.78;;;9.48;100.00
52777;BME280;38656;54.260;20.822;2024-03-23T13:37:01;99519.69;;;9.28;100.00
52777;BME280;38656;54.260;20.822;2024-03-23T13:39:27;99512.63;;;9.38;100.00
52777;BME280;38656;54.260;20.822;2024-03-23T13:41:54;99509.16;;;9.48;100.00
52777;BME280;38656;54.260;20.822;2024-03-23T13:44:23;99505.00;;;9.55;100.00
52777;BME280;38656;54.260;20.822;2024-03-23T13:46:49;99507.19;;;9.69;100.00
52777;BME280;38656;54.260;20.822;2024-03-23T13:49:28;99511.59;;;9.98;100.00
52777;BME280;38656;54.260;20.822;2024-03-23T13:51:56;99524.84;;;9.59;100.00